sensor_id;sensor_type;location;lat;lon;timestamp;P1;durP1;ratioP1;P2;durP2;ratioP2
60241;SDS011;46103;52.076;113.488;2023-10-13T00:00:51;14.00;;;7.20;;
60241;SDS011;46103;52.076;113.488;2023-10-13T00:04:00;12.75;;;6.07;;
60241;SDS011;46103;52.076;113.488;2023-10-13T00:07:24;12.50;;;6.43;;
60241;SDS011;46103;52.076;113.488;2023-10-13T00:10:50;13.57;;;6.68;;
60241;SDS011;46103;52.076;113.488;2023-10-13T00:13:54;11.90;;;6.07;;
60241;SDS011;46103;52.076;113.488;2023-10-13T00:17:02;11.75;;;6.75;;
60241;SDS011;46103;52.076;113.488;2023-10-13T00:20:08;18.67;;;7.63;;
60241;SDS011;46103;52.076;113.488;2023-10-13T00:23:36;13.18;;;5.75;;
60241;SDS011;46103;52.076;113.488;2023-10-13T00:26:41;14.07;;;6.63;;
60241;SDS011;46103;52.076;113.488;2023-10-13T00:29:46;12.57;;;6.07;;
60241;SDS011;46103;52.076;113.488;2023-10-13T00:32:51;13.40;;;6.28;;
60241;SDS011;46103;52.076;113.488;2023-10-13T00:35:59;12.07;;;5.90;;
60241;SDS011;46103;52.076;113.488;2023-10-13T00:39:05;10.45;;;5.82;;
60241;SDS011;46103;52.076;113.488;2023-10-13T00:42:10;10.35;;;5.63;;
60241;SDS011;46103;52.076;113.488;2023-10-13T00:45:30;15.18;;;7.38;;
60241;SDS011;46103;52.076;113.488;2023-10-13T00:48:38;13.50;;;6.97;;
60241;SDS011;46103;52.076;113.488;2023-10-13T00:51:46;14.23;;;8.02;;
60241;SDS011;46103;52.076;113.488;2023-10-13T00:54:51;10.93;;;6.55;;
60241;SDS011;46103;52.076;113.488;2023-10-13T00:57:57;13.10;;;6.47;;
60241;SDS011;46103;52.076;113.488;2023-10-13T01:01:06;20.13;;;10.13;;
60241;SDS011;46103;52.076;113.488;2023-10-13T01:04:26;16.75;;;9.18;;
60241;SDS011;46103;52.076;113.488;2023-10-13T01:07:35;15.20;;;8.18;;
60241;SDS011;46103;52.076;113.488;2023-10-13T01:10:42;19.92;;;8.70;;
60241;SDS011;46103;52.076;113.488;2023-10-13T01:13:46;17.27;;;8.45;;
60241;SDS011;46103;52.076;113.488;2023-10-13T01:16:53;14.18;;;6.47;;
60241;SDS011;46103;52.076;113.488;2023-10-13T01:19:59;14.18;;;7.20;;
60241;SDS011;46103;52.076;113.488;2023-10-13T01:23:04;15.93;;;8.25;;
60241;SDS011;46103;52.076;113.488;2023-10-13T01:26:14;14.52;;;7.60;;
60241;SDS011;46103;52.076;113.488;2023-10-13T01:29:26;13.52;;;7.43;;
60241;SDS011;46103;52.076;113.488;2023-10-13T01:32:32;19.35;;;6.95;;
60241;SDS011;46103;52.076;113.488;2023-10-13T01:35:39;11.70;;;6.00;;
60241;SDS011;46103;52.076;113.488;2023-10-13T01:38:50;10.55;;;5.40;;
60241;SDS011;46103;52.076;113.488;2023-10-13T01:41:54;10.10;;;5.15;;
60241;SDS011;46103;52.076;113.488;2023-10-13T01:45:00;12.30;;;5.97;;
60241;SDS011;46103;52.076;113.488;2023-10-13T01:48:08;10.45;;;5.93;;
60241;SDS011;46103;52.076;113.488;2023-10-13T01:51:11;11.18;;;5.80;;
60241;SDS011;46103;52.076;113.488;2023-10-13T01:54:18;10.90;;;6.65;;
60241;SDS011;46103;52.076;113.488;2023-10-13T01:57:24;10.63;;;6.43;;
60241;SDS011;46103;52.076;113.488;2023-10-13T02:00:28;15.88;;;7.03;;
60241;SDS011;46103;52.076;113.488;2023-10-13T02:03:35;10.43;;;5.13;;
60241;SDS011;46103;52.076;113.488;2023-10-13T02:06:45;12.40;;;6.35;;
60241;SDS011;46103;52.076;113.488;2023-10-13T02:09:49;13.65;;;6.35;;
60241;SDS011;46103;52.076;113.488;2023-10-13T02:12:53;16.38;;;7.45;;
60241;SDS011;46103;52.076;113.488;2023-10-13T02:15:59;16.65;;;6.85;;
60241;SDS011;46103;52.076;113.488;2023-10-13T02:19:06;12.50;;;6.75;;
60241;SDS011;46103;52.076;113.488;2023-10-13T02:22:12;11.05;;;5.78;;
60241;SDS011;46103;52.076;113.488;2023-10-13T02:25:29;10.98;;;5.78;;
60241;SDS011;46103;52.076;113.488;2023-10-13T02:28:39;12.60;;;6.15;;
60241;SDS011;46103;52.076;113.488;2023-10-13T02:31:43;11.77;;;6.10;;
60241;SDS011;46103;52.076;113.488;2023-10-13T02:34:58;11.52;;;5.88;;
60241;SDS011;46103;52.076;113.488;2023-10-13T02:38:09;10.80;;;4.95;;
60241;SDS011;46103;52.076;113.488;2023-10-13T02:41:17;12.90;;;6.03;;
60241;SDS011;46103;52.076;113.488;2023-10-13T02:44:33;14.55;;;5.95;;
60241;SDS011;46103;52.076;113.488;2023-10-13T02:47:38;16.63;;;6.78;;
60241;SDS011;46103;52.076;113.488;2023-10-13T02:50:42;14.20;;;7.13;;
60241;SDS011;46103;52.076;113.488;2023-10-13T02:53:48;12.43;;;6.40;;
60241;SDS011;46103;52.076;113.488;2023-10-13T02:56:53;9.30;;;5.53;;
60241;SDS011;46103;52.076;113.488;2023-10-13T03:00:00;6.20;;;3.05;;
60241;SDS011;46103;52.076;113.488;2023-10-13T03:03:15;6.95;;;3.35;;
60241;SDS011;46103;52.076;113.488;2023-10-13T03:06:22;8.05;;;3.20;;
60241;SDS011;46103;52.076;113.488;2023-10-13T03:09:36;5.32;;;2.85;;
60241;SDS011;46103;52.076;113.488;2023-10-13T03:12:40;7.50;;;3.15;;
60241;SDS011;46103;52.076;113.488;2023-10-13T03:15:46;4.18;;;2.50;;
60241;SDS011;46103;52.076;113.488;2023-10-13T03:18:50;6.53;;;3.33;;
60241;SDS011;46103;52.076;113.488;2023-10-13T03:22:08;8.27;;;3.55;;
60241;SDS011;46103;52.076;113.488;2023-10-13T03:25:19;10.55;;;4.82;;
60241;SDS011;46103;52.076;113.488;2023-10-13T03:28:32;6.38;;;3.20;;
60241;SDS011;46103;52.076;113.488;2023-10-13T03:31:36;7.35;;;3.50;;
60241;SDS011;46103;52.076;113.488;2023-10-13T03:34:41;8.63;;;3.45;;
60241;SDS011;46103;52.076;113.488;2023-10-13T03:40:58;8.07;;;3.00;;
60241;SDS011;46103;52.076;113.488;2023-10-13T03:44:22;7.75;;;3.00;;
60241;SDS011;46103;52.076;113.488;2023-10-13T03:47:26;7.93;;;3.08;;
60241;SDS011;46103;52.076;113.488;2023-10-13T03:50:30;7.57;;;2.88;;
60241;SDS011;46103;52.076;113.488;2023-10-13T03:53:39;6.13;;;3.33;;
60241;SDS011;46103;52.076;113.488;2023-10-13T03:56:57;6.72;;;2.95;;
60241;SDS011;46103;52.076;113.488;2023-10-13T04:00:00;6.40;;;3.22;;
60241;SDS011;46103;52.076;113.488;2023-10-13T04:03:12;10.98;;;5.93;;
60241;SDS011;46103;52.076;113.488;2023-10-13T04:06:20;7.72;;;4.25;;
60241;SDS011;46103;52.076;113.488;2023-10-13T04:09:43;7.47;;;3.30;;
60241;SDS011;46103;52.076;113.488;2023-10-13T04:12:50;7.90;;;3.17;;
60241;SDS011;46103;52.076;113.488;2023-10-13T04:16:13;9.15;;;3.55;;
60241;SDS011;46103;52.076;113.488;2023-10-13T04:19:40;8.40;;;3.58;;
60241;SDS011;46103;52.076;113.488;2023-10-13T04:23:04;7.50;;;3.50;;
60241;SDS011;46103;52.076;113.488;2023-10-13T04:26:25;7.00;;;3.58;;
60241;SDS011;46103;52.076;113.488;2023-10-13T04:29:39;10.27;;;3.83;;
60241;SDS011;46103;52.076;113.488;2023-10-13T04:32:59;10.25;;;3.78;;
60241;SDS011;46103;52.076;113.488;2023-10-13T04:36:25;8.73;;;3.45;;
60241;SDS011;46103;52.076;113.488;2023-10-13T04:39:30;5.70;;;2.80;;
60241;SDS011;46103;52.076;113.488;2023-10-13T04:42:38;6.13;;;2.88;;
60241;SDS011;46103;52.076;113.488;2023-10-13T04:45:53;4.35;;;2.80;;
60241;SDS011;46103;52.076;113.488;2023-10-13T04:49:03;4.78;;;2.90;;
60241;SDS011;46103;52.076;113.488;2023-10-13T04:52:13;6.20;;;3.28;;
60241;SDS011;46103;52.076;113.488;2023-10-13T04:55:37;5.07;;;3.03;;
60241;SDS011;46103;52.076;113.488;2023-10-13T04:59:02;6.63;;;3.65;;
60241;SDS011;46103;52.076;113.488;2023-10-13T05:02:39;7.05;;;3.88;;
60241;SDS011;46103;52.076;113.488;2023-10-13T05:05:44;6.60;;;3.65;;
60241;SDS011;46103;52.076;113.488;2023-10-13T05:09:19;7.57;;;3.75;;
60241;SDS011;46103;52.076;113.488;2023-10-13T05:13:26;7.55;;;3.65;;
60241;SDS011;46103;52.076;113.488;2023-10-13T05:17:22;7.30;;;3.50;;
60241;SDS011;46103;52.076;113.488;2023-10-13T05:20:45;6.53;;;3.97;;
60241;SDS011;46103;52.076;113.488;2023-10-13T05:24:07;5.32;;;3.15;;
60241;SDS011;46103;52.076;113.488;2023-10-13T05:27:30;4.85;;;3.15;;
60241;SDS011;46103;52.076;113.488;2023-10-13T05:31:12;7.85;;;3.28;;
60241;SDS011;46103;52.076;113.488;2023-10-13T05:34:35;11.30;;;5.25;;
60241;SDS011;46103;52.076;113.488;2023-10-13T05:38:14;8.18;;;3.55;;
60241;SDS011;46103;52.076;113.488;2023-10-13T05:41:40;8.57;;;4.10;;
60241;SDS011;46103;52.076;113.488;2023-10-13T05:45:03;8.55;;;4.18;;
60241;SDS011;46103;52.076;113.488;2023-10-13T05:48:21;8.48;;;4.45;;
60241;SDS011;46103;52.076;113.488;2023-10-13T05:51:45;9.82;;;4.45;;
60241;SDS011;46103;52.076;113.488;2023-10-13T05:55:10;8.30;;;4.40;;
60241;SDS011;46103;52.076;113.488;2023-10-13T05:58:33;8.52;;;3.78;;
60241;SDS011;46103;52.076;113.488;2023-10-13T06:01:55;7.80;;;4.18;;
60241;SDS011;46103;52.076;113.488;2023-10-13T06:05:17;8.23;;;4.13;;
60241;SDS011;46103;52.076;113.488;2023-10-13T06:08:40;10.27;;;4.22;;
60241;SDS011;46103;52.076;113.488;2023-10-13T06:12:02;7.72;;;3.85;;
60241;SDS011;46103;52.076;113.488;2023-10-13T06:15:25;7.93;;;4.00;;
60241;SDS011;46103;52.076;113.488;2023-10-13T06:18:47;7.97;;;3.83;;
60241;SDS011;46103;52.076;113.488;2023-10-13T06:22:09;8.38;;;4.18;;
60241;SDS011;46103;52.076;113.488;2023-10-13T06:25:32;8.25;;;4.30;;
60241;SDS011;46103;52.076;113.488;2023-10-13T06:28:55;5.47;;;3.60;;
60241;SDS011;46103;52.076;113.488;2023-10-13T06:31:59;7.22;;;3.65;;
60241;SDS011;46103;52.076;113.488;2023-10-13T06:35:05;9.05;;;3.80;;
60241;SDS011;46103;52.076;113.488;2023-10-13T06:38:22;7.20;;;3.70;;
60241;SDS011;46103;52.076;113.488;2023-10-13T06:41:26;7.85;;;3.35;;
60241;SDS011;46103;52.076;113.488;2023-10-13T06:44:42;9.48;;;4.18;;
60241;SDS011;46103;52.076;113.488;2023-10-13T06:47:49;6.90;;;3.75;;
60241;SDS011;46103;52.076;113.488;2023-10-13T06:50:56;7.00;;;4.10;;
60241;SDS011;46103;52.076;113.488;2023-10-13T06:54:06;7.60;;;3.75;;
60241;SDS011;46103;52.076;113.488;2023-10-13T06:57:24;6.40;;;3.67;;
60241;SDS011;46103;52.076;113.488;2023-10-13T07:00:28;8.57;;;4.10;;
60241;SDS011;46103;52.076;113.488;2023-10-13T07:03:31;9.38;;;4.60;;
60241;SDS011;46103;52.076;113.488;2023-10-13T07:06:36;7.93;;;4.05;;
60241;SDS011;46103;52.076;113.488;2023-10-13T07:09:43;6.75;;;4.07;;
60241;SDS011;46103;52.076;113.488;2023-10-13T07:12:58;7.82;;;4.38;;
60241;SDS011;46103;52.076;113.488;2023-10-13T07:16:03;7.50;;;3.72;;
60241;SDS011;46103;52.076;113.488;2023-10-13T07:19:31;5.95;;;3.78;;
60241;SDS011;46103;52.076;113.488;2023-10-13T07:22:39;6.68;;;4.00;;
60241;SDS011;46103;52.076;113.488;2023-10-13T07:25:57;6.60;;;4.03;;
60241;SDS011;46103;52.076;113.488;2023-10-13T07:29:05;4.60;;;3.60;;
60241;SDS011;46103;52.076;113.488;2023-10-13T07:32:11;7.90;;;4.18;;
60241;SDS011;46103;52.076;113.488;2023-10-13T07:35:16;6.28;;;3.55;;
60241;SDS011;46103;52.076;113.488;2023-10-13T07:38:23;7.75;;;4.32;;
60241;SDS011;46103;52.076;113.488;2023-10-13T07:41:26;7.35;;;3.50;;
60241;SDS011;46103;52.076;113.488;2023-10-13T07:44:33;8.80;;;4.00;;
60241;SDS011;46103;52.076;113.488;2023-10-13T07:47:42;7.15;;;3.97;;
60241;SDS011;46103;52.076;113.488;2023-10-13T07:50:47;9.65;;;3.85;;
60241;SDS011;46103;52.076;113.488;2023-10-13T07:54:01;6.82;;;4.78;;
60241;SDS011;46103;52.076;113.488;2023-10-13T07:57:07;8.50;;;4.60;;
60241;SDS011;46103;52.076;113.488;2023-10-13T08:00:10;5.68;;;4.07;;
60241;SDS011;46103;52.076;113.488;2023-10-13T08:03:28;9.05;;;3.75;;
60241;SDS011;46103;52.076;113.488;2023-10-13T08:06:38;11.90;;;5.43;;
60241;SDS011;46103;52.076;113.488;2023-10-13T08:09:47;7.43;;;4.10;;
60241;SDS011;46103;52.076;113.488;2023-10-13T08:12:55;10.35;;;4.90;;
60241;SDS011;46103;52.076;113.488;2023-10-13T08:16:01;13.73;;;5.05;;
60241;SDS011;46103;52.076;113.488;2023-10-13T08:19:20;12.52;;;5.82;;
60241;SDS011;46103;52.076;113.488;2023-10-13T08:22:30;8.25;;;4.13;;
60241;SDS011;46103;52.076;113.488;2023-10-13T08:25:40;9.77;;;5.15;;
60241;SDS011;46103;52.076;113.488;2023-10-13T08:29:04;12.30;;;5.45;;
60241;SDS011;46103;52.076;113.488;2023-10-13T08:32:20;13.85;;;5.40;;
60241;SDS011;46103;52.076;113.488;2023-10-13T08:35:31;14.73;;;5.32;;
60241;SDS011;46103;52.076;113.488;2023-10-13T08:38:38;18.33;;;7.00;;
60241;SDS011;46103;52.076;113.488;2023-10-13T08:41:54;20.42;;;7.57;;
60241;SDS011;46103;52.076;113.488;2023-10-13T08:45:15;18.88;;;7.63;;
60241;SDS011;46103;52.076;113.488;2023-10-13T08:48:26;14.90;;;6.25;;
60241;SDS011;46103;52.076;113.488;2023-10-13T08:51:35;10.18;;;4.70;;
60241;SDS011;46103;52.076;113.488;2023-10-13T08:55:09;7.28;;;3.58;;
60241;SDS011;46103;52.076;113.488;2023-10-13T08:58:49;7.47;;;4.15;;
60241;SDS011;46103;52.076;113.488;2023-10-13T09:01:57;7.72;;;4.57;;
60241;SDS011;46103;52.076;113.488;2023-10-13T09:05:18;16.23;;;6.82;;
60241;SDS011;46103;52.076;113.488;2023-10-13T09:08:41;16.42;;;7.93;;
60241;SDS011;46103;52.076;113.488;2023-10-13T09:12:13;13.05;;;5.82;;
60241;SDS011;46103;52.076;113.488;2023-10-13T09:15:28;15.43;;;8.05;;
60241;SDS011;46103;52.076;113.488;2023-10-13T09:18:51;22.13;;;7.95;;
60241;SDS011;46103;52.076;113.488;2023-10-13T09:21:55;15.45;;;7.38;;
60241;SDS011;46103;52.076;113.488;2023-10-13T09:24:59;17.67;;;9.00;;
60241;SDS011;46103;52.076;113.488;2023-10-13T09:31:13;14.73;;;9.55;;
60241;SDS011;46103;52.076;113.488;2023-10-13T09:34:29;14.32;;;8.40;;
60241;SDS011;46103;52.076;113.488;2023-10-13T09:37:38;12.50;;;6.30;;
60241;SDS011;46103;52.076;113.488;2023-10-13T09:40:42;15.07;;;7.25;;
60241;SDS011;46103;52.076;113.488;2023-10-13T09:44:00;14.38;;;7.60;;
60241;SDS011;46103;52.076;113.488;2023-10-13T09:47:07;13.90;;;7.72;;
60241;SDS011;46103;52.076;113.488;2023-10-13T09:50:25;24.60;;;12.43;;
60241;SDS011;46103;52.076;113.488;2023-10-13T09:53:36;27.15;;;15.55;;
60241;SDS011;46103;52.076;113.488;2023-10-13T09:57:08;23.10;;;13.50;;
60241;SDS011;46103;52.076;113.488;2023-10-13T10:03:45;24.35;;;12.48;;
60241;SDS011;46103;52.076;113.488;2023-10-13T10:06:55;23.05;;;11.52;;
60241;SDS011;46103;52.076;113.488;2023-10-13T10:10:00;20.67;;;13.60;;
60241;SDS011;46103;52.076;113.488;2023-10-13T10:13:19;26.55;;;14.80;;
60241;SDS011;46103;52.076;113.488;2023-10-13T10:20:10;27.90;;;12.85;;
60241;SDS011;46103;52.076;113.488;2023-10-13T10:23:32;23.80;;;13.93;;
60241;SDS011;46103;52.076;113.488;2023-10-13T10:26:52;23.90;;;12.65;;
60241;SDS011;46103;52.076;113.488;2023-10-13T10:29:56;25.95;;;14.88;;
60241;SDS011;46103;52.076;113.488;2023-10-13T10:33:04;25.85;;;14.57;;
60241;SDS011;46103;52.076;113.488;2023-10-13T10:36:22;17.20;;;10.57;;
60241;SDS011;46103;52.076;113.488;2023-10-13T10:39:34;18.58;;;11.20;;
60241;SDS011;46103;52.076;113.488;2023-10-13T10:42:51;24.17;;;12.73;;
60241;SDS011;46103;52.076;113.488;2023-10-13T10:45:58;21.40;;;13.32;;
60241;SDS011;46103;52.076;113.488;2023-10-13T10:49:04;19.65;;;11.13;;
60241;SDS011;46103;52.076;113.488;2023-10-13T10:52:09;17.52;;;9.48;;
60241;SDS011;46103;52.076;113.488;2023-10-13T10:55:20;13.85;;;8.68;;
60241;SDS011;46103;52.076;113.488;2023-10-13T10:58:34;14.55;;;8.07;;
60241;SDS011;46103;52.076;113.488;2023-10-13T11:01:47;15.63;;;8.27;;
60241;SDS011;46103;52.076;113.488;2023-10-13T11:05:02;15.35;;;8.93;;
60241;SDS011;46103;52.076;113.488;2023-10-13T11:08:19;17.10;;;9.30;;
60241;SDS011;46103;52.076;113.488;2023-10-13T11:11:37;14.50;;;8.30;;
60241;SDS011;46103;52.076;113.488;2023-10-13T11:14:42;15.27;;;8.10;;
60241;SDS011;46103;52.076;113.488;2023-10-13T11:17:52;22.63;;;9.35;;
60241;SDS011;46103;52.076;113.488;2023-10-13T11:21:01;16.55;;;8.63;;
60241;SDS011;46103;52.076;113.488;2023-10-13T11:24:10;17.17;;;8.27;;
60241;SDS011;46103;52.076;113.488;2023-10-13T11:27:15;15.60;;;8.85;;
60241;SDS011;46103;52.076;113.488;2023-10-13T11:30:41;26.77;;;15.63;;
60241;SDS011;46103;52.076;113.488;2023-10-13T11:33:49;12.95;;;7.30;;
60241;SDS011;46103;52.076;113.488;2023-10-13T11:36:54;16.02;;;7.28;;
60241;SDS011;46103;52.076;113.488;2023-10-13T11:39:58;12.32;;;7.53;;
60241;SDS011;46103;52.076;113.488;2023-10-13T11:43:04;16.80;;;8.20;;
60241;SDS011;46103;52.076;113.488;2023-10-13T11:46:11;13.57;;;6.72;;
60241;SDS011;46103;52.076;113.488;2023-10-13T11:49:21;12.82;;;5.40;;
60241;SDS011;46103;52.076;113.488;2023-10-13T11:52:33;8.65;;;5.22;;
60241;SDS011;46103;52.076;113.488;2023-10-13T11:55:40;13.18;;;4.97;;
60241;SDS011;46103;52.076;113.488;2023-10-13T11:58:44;9.60;;;5.13;;
60241;SDS011;46103;52.076;113.488;2023-10-13T12:01:51;10.05;;;4.22;;
60241;SDS011;46103;52.076;113.488;2023-10-13T12:05:14;10.27;;;4.53;;
60241;SDS011;46103;52.076;113.488;2023-10-13T12:08:27;11.80;;;4.53;;
60241;SDS011;46103;52.076;113.488;2023-10-13T12:11:36;10.82;;;4.75;;
60241;SDS011;46103;52.076;113.488;2023-10-13T12:14:47;12.35;;;5.13;;
60241;SDS011;46103;52.076;113.488;2023-10-13T12:17:59;13.13;;;6.20;;
60241;SDS011;46103;52.076;113.488;2023-10-13T12:21:08;13.85;;;7.15;;
60241;SDS011;46103;52.076;113.488;2023-10-13T12:24:15;35.20;;;20.88;;
60241;SDS011;46103;52.076;113.488;2023-10-13T12:27:34;35.90;;;22.00;;
60241;SDS011;46103;52.076;113.488;2023-10-13T12:30:49;38.50;;;22.58;;
60241;SDS011;46103;52.076;113.488;2023-10-13T12:33:57;34.33;;;21.75;;
60241;SDS011;46103;52.076;113.488;2023-10-13T12:37:09;35.58;;;21.48;;
60241;SDS011;46103;52.076;113.488;2023-10-13T12:40:33;39.20;;;21.00;;
60241;SDS011;46103;52.076;113.488;2023-10-13T12:43:55;42.05;;;24.33;;
60241;SDS011;46103;52.076;113.488;2023-10-13T12:47:35;43.45;;;24.85;;
60241;SDS011;46103;52.076;113.488;2023-10-13T12:51:00;46.35;;;26.17;;
60241;SDS011;46103;52.076;113.488;2023-10-13T12:54:23;45.92;;;28.23;;
60241;SDS011;46103;52.076;113.488;2023-10-13T12:57:30;47.97;;;29.02;;
60241;SDS011;46103;52.076;113.488;2023-10-13T13:00:38;44.17;;;26.30;;
60241;SDS011;46103;52.076;113.488;2023-10-13T13:07:18;40.42;;;24.00;;
60241;SDS011;46103;52.076;113.488;2023-10-13T13:10:24;29.52;;;19.17;;
60241;SDS011;46103;52.076;113.488;2023-10-13T13:13:48;42.72;;;25.13;;
60241;SDS011;46103;52.076;113.488;2023-10-13T13:16:53;26.30;;;14.75;;
60241;SDS011;46103;52.076;113.488;2023-10-13T13:19:58;31.77;;;18.10;;
60241;SDS011;46103;52.076;113.488;2023-10-13T13:23:03;17.75;;;7.55;;
60241;SDS011;46103;52.076;113.488;2023-10-13T13:26:08;17.05;;;9.75;;
60241;SDS011;46103;52.076;113.488;2023-10-13T13:29:20;16.80;;;9.68;;
60241;SDS011;46103;52.076;113.488;2023-10-13T13:32:24;18.33;;;11.30;;
60241;SDS011;46103;52.076;113.488;2023-10-13T13:35:29;21.90;;;11.77;;
60241;SDS011;46103;52.076;113.488;2023-10-13T13:38:38;20.15;;;11.40;;
60241;SDS011;46103;52.076;113.488;2023-10-13T13:41:44;20.13;;;13.25;;
60241;SDS011;46103;52.076;113.488;2023-10-13T13:44:54;25.60;;;13.38;;
60241;SDS011;46103;52.076;113.488;2023-10-13T13:48:03;23.77;;;14.15;;
60241;SDS011;46103;52.076;113.488;2023-10-13T13:51:11;24.23;;;14.25;;
60241;SDS011;46103;52.076;113.488;2023-10-13T13:54:19;22.40;;;12.23;;
60241;SDS011;46103;52.076;113.488;2023-10-13T13:57:24;22.63;;;13.68;;
60241;SDS011;46103;52.076;113.488;2023-10-13T14:00:29;18.05;;;11.40;;
60241;SDS011;46103;52.076;113.488;2023-10-13T14:03:52;17.83;;;10.68;;
60241;SDS011;46103;52.076;113.488;2023-10-13T14:07:02;17.80;;;10.10;;
60241;SDS011;46103;52.076;113.488;2023-10-13T14:10:10;16.42;;;9.80;;
60241;SDS011;46103;52.076;113.488;2023-10-13T14:13:22;17.73;;;10.93;;
60241;SDS011;46103;52.076;113.488;2023-10-13T14:16:46;19.60;;;9.85;;
60241;SDS011;46103;52.076;113.488;2023-10-13T14:19:53;18.63;;;10.45;;
60241;SDS011;46103;52.076;113.488;2023-10-13T14:22:57;18.55;;;9.05;;
60241;SDS011;46103;52.076;113.488;2023-10-13T14:26:02;13.15;;;7.60;;
60241;SDS011;46103;52.076;113.488;2023-10-13T14:29:06;13.05;;;8.10;;
60241;SDS011;46103;52.076;113.488;2023-10-13T14:32:13;15.07;;;8.77;;
60241;SDS011;46103;52.076;113.488;2023-10-13T14:35:18;13.18;;;7.05;;
60241;SDS011;46103;52.076;113.488;2023-10-13T14:38:23;12.23;;;6.95;;
60241;SDS011;46103;52.076;113.488;2023-10-13T14:41:27;19.30;;;11.00;;
60241;SDS011;46103;52.076;113.488;2023-10-13T14:44:34;20.40;;;11.65;;
60241;SDS011;46103;52.076;113.488;2023-10-13T14:47:40;24.95;;;12.75;;
60241;SDS011;46103;52.076;113.488;2023-10-13T14:50:45;25.83;;;14.82;;
60241;SDS011;46103;52.076;113.488;2023-10-13T14:53:48;25.20;;;13.93;;
60241;SDS011;46103;52.076;113.488;2023-10-13T14:56:55;21.98;;;12.75;;
60241;SDS011;46103;52.076;113.488;2023-10-13T14:59:59;24.95;;;14.18;;
60241;SDS011;46103;52.076;113.488;2023-10-13T15:03:06;23.95;;;13.55;;
60241;SDS011;46103;52.076;113.488;2023-10-13T15:06:23;16.58;;;10.55;;
60241;SDS011;46103;52.076;113.488;2023-10-13T15:09:29;21.52;;;11.70;;
60241;SDS011;46103;52.076;113.488;2023-10-13T15:12:33;21.45;;;10.25;;
60241;SDS011;46103;52.076;113.488;2023-10-13T15:15:38;22.58;;;10.50;;
60241;SDS011;46103;52.076;113.488;2023-10-13T15:18:44;24.25;;;11.57;;
60241;SDS011;46103;52.076;113.488;2023-10-13T15:21:49;17.92;;;10.57;;
60241;SDS011;46103;52.076;113.488;2023-10-13T15:24:53;22.98;;;12.75;;
60241;SDS011;46103;52.076;113.488;2023-10-13T15:28:12;21.10;;;10.90;;
60241;SDS011;46103;52.076;113.488;2023-10-13T15:31:16;24.25;;;11.70;;
60241;SDS011;46103;52.076;113.488;2023-10-13T15:34:31;16.80;;;9.00;;
60241;SDS011;46103;52.076;113.488;2023-10-13T15:37:35;16.73;;;8.85;;
60241;SDS011;46103;52.076;113.488;2023-10-13T15:40:40;16.52;;;8.68;;
60241;SDS011;46103;52.076;113.488;2023-10-13T15:46:55;16.15;;;7.47;;
60241;SDS011;46103;52.076;113.488;2023-10-13T15:50:02;19.85;;;10.52;;
60241;SDS011;46103;52.076;113.488;2023-10-13T15:53:08;22.98;;;12.85;;
60241;SDS011;46103;52.076;113.488;2023-10-13T15:56:16;15.00;;;9.05;;
60241;SDS011;46103;52.076;113.488;2023-10-13T15:59:20;18.15;;;10.65;;
60241;SDS011;46103;52.076;113.488;2023-10-13T16:02:26;17.65;;;9.82;;
60241;SDS011;46103;52.076;113.488;2023-10-13T16:05:30;16.42;;;10.48;;
60241;SDS011;46103;52.076;113.488;2023-10-13T16:08:37;15.20;;;8.77;;
60241;SDS011;46103;52.076;113.488;2023-10-13T16:11:46;17.02;;;8.40;;
60241;SDS011;46103;52.076;113.488;2023-10-13T16:14:49;16.52;;;9.05;;
60241;SDS011;46103;52.076;113.488;2023-10-13T16:17:53;16.38;;;9.23;;
60241;SDS011;46103;52.076;113.488;2023-10-13T16:20:58;14.30;;;8.07;;
60241;SDS011;46103;52.076;113.488;2023-10-13T16:24:03;13.77;;;7.60;;
60241;SDS011;46103;52.076;113.488;2023-10-13T16:27:07;11.95;;;6.95;;
60241;SDS011;46103;52.076;113.488;2023-10-13T16:30:12;13.00;;;7.10;;
60241;SDS011;46103;52.076;113.488;2023-10-13T16:33:22;15.10;;;8.20;;
60241;SDS011;46103;52.076;113.488;2023-10-13T16:36:26;13.27;;;8.32;;
60241;SDS011;46103;52.076;113.488;2023-10-13T16:39:30;14.35;;;6.93;;
60241;SDS011;46103;52.076;113.488;2023-10-13T16:42:35;14.52;;;7.15;;
60241;SDS011;46103;52.076;113.488;2023-10-13T16:45:42;11.15;;;6.53;;
60241;SDS011;46103;52.076;113.488;2023-10-13T16:48:49;12.40;;;6.45;;
60241;SDS011;46103;52.076;113.488;2023-10-13T16:51:53;12.48;;;6.63;;
60241;SDS011;46103;52.076;113.488;2023-10-13T16:54:57;12.32;;;6.63;;
60241;SDS011;46103;52.076;113.488;2023-10-13T16:58:01;10.98;;;6.97;;
60241;SDS011;46103;52.076;113.488;2023-10-13T17:01:12;13.32;;;6.50;;
60241;SDS011;46103;52.076;113.488;2023-10-13T17:04:17;14.18;;;7.10;;
60241;SDS011;46103;52.076;113.488;2023-10-13T17:07:26;14.15;;;5.97;;
60241;SDS011;46103;52.076;113.488;2023-10-13T17:10:29;12.02;;;6.30;;
60241;SDS011;46103;52.076;113.488;2023-10-13T17:13:34;12.60;;;6.32;;
60241;SDS011;46103;52.076;113.488;2023-10-13T17:16:41;10.38;;;5.32;;
60241;SDS011;46103;52.076;113.488;2023-10-13T17:19:47;12.05;;;6.00;;
60241;SDS011;46103;52.076;113.488;2023-10-13T17:22:52;10.80;;;5.60;;
60241;SDS011;46103;52.076;113.488;2023-10-13T17:25:59;11.93;;;6.70;;
60241;SDS011;46103;52.076;113.488;2023-10-13T17:29:02;10.98;;;5.78;;
60241;SDS011;46103;52.076;113.488;2023-10-13T17:32:12;11.23;;;6.00;;
60241;SDS011;46103;52.076;113.488;2023-10-13T17:35:19;11.45;;;6.05;;
60241;SDS011;46103;52.076;113.488;2023-10-13T17:38:24;13.40;;;5.82;;
60241;SDS011;46103;52.076;113.488;2023-10-13T17:41:28;10.70;;;5.07;;
60241;SDS011;46103;52.076;113.488;2023-10-13T17:44:35;9.48;;;5.15;;
60241;SDS011;46103;52.076;113.488;2023-10-13T17:47:41;11.90;;;5.68;;
60241;SDS011;46103;52.076;113.488;2023-10-13T17:50:47;10.93;;;5.55;;
60241;SDS011;46103;52.076;113.488;2023-10-13T17:53:50;13.98;;;6.35;;
60241;SDS011;46103;52.076;113.488;2023-10-13T17:56:56;12.27;;;6.07;;
60241;SDS011;46103;52.076;113.488;2023-10-13T18:00:00;11.23;;;7.07;;
60241;SDS011;46103;52.076;113.488;2023-10-13T18:03:06;14.65;;;6.22;;
60241;SDS011;46103;52.076;113.488;2023-10-13T18:06:10;11.80;;;6.22;;
60241;SDS011;46103;52.076;113.488;2023-10-13T18:09:14;11.82;;;5.70;;
60241;SDS011;46103;52.076;113.488;2023-10-13T18:12:19;10.23;;;5.97;;
60241;SDS011;46103;52.076;113.488;2023-10-13T18:15:23;12.38;;;6.28;;
60241;SDS011;46103;52.076;113.488;2023-10-13T18:18:27;10.18;;;4.88;;
60241;SDS011;46103;52.076;113.488;2023-10-13T18:21:31;10.68;;;5.97;;
60241;SDS011;46103;52.076;113.488;2023-10-13T18:24:37;12.43;;;5.75;;
60241;SDS011;46103;52.076;113.488;2023-10-13T18:27:43;12.32;;;6.50;;
60241;SDS011;46103;52.076;113.488;2023-10-13T18:30:55;15.43;;;6.35;;
60241;SDS011;46103;52.076;113.488;2023-10-13T18:34:00;11.02;;;6.38;;
60241;SDS011;46103;52.076;113.488;2023-10-13T18:37:05;14.48;;;6.93;;
60241;SDS011;46103;52.076;113.488;2023-10-13T18:40:13;11.60;;;5.72;;
60241;SDS011;46103;52.076;113.488;2023-10-13T18:43:18;11.88;;;5.72;;